sensor_id;sensor_type;location;lat;lon;timestamp;P1;durP1;ratioP1;P2;durP2;ratioP2
6977;SDS011;3529;53.244;10.414;2023-07-13T00:00:28;1.00;;;1.00;;
6977;SDS011;3529;53.244;10.414;2023-07-13T00:02:55;1.88;;;1.77;;
6977;SDS011;3529;53.244;10.414;2023-07-13T00:05:22;1.30;;;1.30;;
6977;SDS011;3529;53.244;10.414;2023-07-13T00:07:48;1.13;;;1.13;;
6977;SDS011;3529;53.244;10.414;2023-07-13T00:10:14;1.15;;;1.15;;
6977;SDS011;3529;53.244;10.414;2023-07-13T00:12:40;1.40;;;1.40;;
6977;SDS011;3529;53.244;10.414;2023-07-13T00:15:09;1.00;;;1.00;;
6977;SDS011;3529;53.244;10.414;2023-07-13T00:17:37;1.75;;;1.48;;
6977;SDS011;3529;53.244;10.414;2023-07-13T00:20:04;1.67;;;1.20;;
6977;SDS011;3529;53.244;10.414;2023-07-13T00:22:30;1.33;;;1.33;;
6977;SDS011;3529;53.244;10.414;2023-07-13T00:24:56;1.05;;;1.05;;
6977;SDS011;3529;53.244;10.414;2023-07-13T00:27:22;1.20;;;1.20;;
6977;SDS011;3529;53.244;10.414;2023-07-13T00:29:51;1.27;;;1.27;;
6977;SDS011;3529;53.244;10.414;2023-07-13T00:32:17;1.33;;;1.23;;
6977;SDS011;3529;53.244;10.414;2023-07-13T00:34:44;1.55;;;1.45;;
6977;SDS011;3529;53.244;10.414;2023-07-13T00:37:10;1.55;;;1.45;;
6977;SDS011;3529;53.244;10.414;2023-07-13T00:39:36;1.25;;;1.25;;
6977;SDS011;3529;53.244;10.414;2023-07-13T00:42:03;1.10;;;1.10;;
6977;SDS011;3529;53.244;10.414;2023-07-13T00:44:29;1.50;;;1.40;;
6977;SDS011;3529;53.244;10.414;2023-07-13T00:46:56;1.23;;;1.23;;
6977;SDS011;3529;53.244;10.414;2023-07-13T00:49:24;1.30;;;1.30;;
6977;SDS011;3529;53.244;10.414;2023-07-13T00:51:58;1.33;;;1.33;;
6977;SDS011;3529;53.244;10.414;2023-07-13T00:54:38;1.02;;;1.02;;
6977;SDS011;3529;53.244;10.414;2023-07-13T00:57:09;1.05;;;1.05;;
6977;SDS011;3529;53.244;10.414;2023-07-13T00:59:37;1.35;;;1.35;;
6977;SDS011;3529;53.244;10.414;2023-07-13T01:02:05;1.17;;;1.17;;
6977;SDS011;3529;53.244;10.414;2023-07-13T01:04:31;1.10;;;1.10;;
6977;SDS011;3529;53.244;10.414;2023-07-13T01:06:57;1.20;;;1.20;;
6977;SDS011;3529;53.244;10.414;2023-07-13T01:09:23;1.40;;;1.40;;
6977;SDS011;3529;53.244;10.414;2023-07-13T01:11:49;1.35;;;1.33;;
6977;SDS011;3529;53.244;10.414;2023-07-13T01:14:15;1.20;;;1.20;;
6977;SDS011;3529;53.244;10.414;2023-07-13T01:16:42;1.23;;;1.23;;
6977;SDS011;3529;53.244;10.414;2023-07-13T01:19:18;1.50;;;1.50;;
6977;SDS011;3529;53.244;10.414;2023-07-13T01:21:50;1.70;;;1.63;;
6977;SDS011;3529;53.244;10.414;2023-07-13T01:24:17;1.40;;;1.40;;
6977;SDS011;3529;53.244;10.414;2023-07-13T01:26:42;1.20;;;1.20;;
6977;SDS011;3529;53.244;10.414;2023-07-13T01:29:08;1.48;;;1.45;;
6977;SDS011;3529;53.244;10.414;2023-07-13T01:31:34;1.63;;;1.52;;
6977;SDS011;3529;53.244;10.414;2023-07-13T01:34:00;1.00;;;1.00;;
6977;SDS011;3529;53.244;10.414;2023-07-13T01:36:27;1.10;;;1.10;;
6977;SDS011;3529;53.244;10.414;2023-07-13T01:38:53;1.17;;;1.17;;
6977;SDS011;3529;53.244;10.414;2023-07-13T01:41:18;1.92;;;1.75;;
6977;SDS011;3529;53.244;10.414;2023-07-13T01:43:44;1.20;;;1.20;;
6977;SDS011;3529;53.244;10.414;2023-07-13T01:46:10;2.00;;;1.90;;
6977;SDS011;3529;53.244;10.414;2023-07-13T01:48:36;1.10;;;1.10;;
6977;SDS011;3529;53.244;10.414;2023-07-13T01:51:02;1.73;;;1.65;;
6977;SDS011;3529;53.244;10.414;2023-07-13T01:53:28;1.23;;;1.23;;
6977;SDS011;3529;53.244;10.414;2023-07-13T01:55:54;1.33;;;1.33;;
6977;SDS011;3529;53.244;10.414;2023-07-13T01:58:20;1.20;;;1.20;;
6977;SDS011;3529;53.244;10.414;2023-07-13T02:00:48;1.35;;;1.30;;
6977;SDS011;3529;53.244;10.414;2023-07-13T02:03:14;1.40;;;1.40;;
6977;SDS011;3529;53.244;10.414;2023-07-13T02:05:43;1.15;;;1.15;;
6977;SDS011;3529;53.244;10.414;2023-07-13T02:08:09;1.73;;;1.63;;
6977;SDS011;3529;53.244;10.414;2023-07-13T02:10:36;1.10;;;1.10;;
6977;SDS011;3529;53.244;10.414;2023-07-13T02:13:03;1.70;;;1.60;;
6977;SDS011;3529;53.244;10.414;2023-07-13T02:15:29;1.55;;;1.50;;
6977;SDS011;3529;53.244;10.414;2023-07-13T02:17:55;1.40;;;1.40;;
6977;SDS011;3529;53.244;10.414;2023-07-13T02:20:21;1.70;;;1.27;;
6977;SDS011;3529;53.244;10.414;2023-07-13T02:22:47;1.65;;;1.58;;
6977;SDS011;3529;53.244;10.414;2023-07-13T02:25:13;1.35;;;1.35;;
6977;SDS011;3529;53.244;10.414;2023-07-13T02:27:39;1.25;;;1.25;;
6977;SDS011;3529;53.244;10.414;2023-07-13T02:30:06;1.02;;;1.02;;
6977;SDS011;3529;53.244;10.414;2023-07-13T02:32:32;1.30;;;1.30;;
6977;SDS011;3529;53.244;10.414;2023-07-13T02:34:58;1.50;;;1.50;;
6977;SDS011;3529;53.244;10.414;2023-07-13T02:37:24;1.40;;;1.40;;
6977;SDS011;3529;53.244;10.414;2023-07-13T02:39:50;1.15;;;1.15;;
6977;SDS011;3529;53.244;10.414;2023-07-13T02:42:16;1.13;;;1.13;;
6977;SDS011;3529;53.244;10.414;2023-07-13T02:44:42;1.30;;;1.30;;
6977;SDS011;3529;53.244;10.414;2023-07-13T02:47:08;1.17;;;1.17;;
6977;SDS011;3529;53.244;10.414;2023-07-13T02:49:34;1.70;;;1.60;;
6977;SDS011;3529;53.244;10.414;2023-07-13T02:52:01;1.70;;;1.60;;
6977;SDS011;3529;53.244;10.414;2023-07-13T02:54:27;1.20;;;1.20;;
6977;SDS011;3529;53.244;10.414;2023-07-13T02:56:53;1.17;;;1.17;;
6977;SDS011;3529;53.244;10.414;2023-07-13T02:59:19;1.25;;;1.25;;
6977;SDS011;3529;53.244;10.414;2023-07-13T03:01:45;1.77;;;1.67;;
6977;SDS011;3529;53.244;10.414;2023-07-13T03:04:11;1.50;;;1.50;;
6977;SDS011;3529;53.244;10.414;2023-07-13T03:06:37;1.17;;;1.17;;
6977;SDS011;3529;53.244;10.414;2023-07-13T03:09:03;1.30;;;1.30;;
6977;SDS011;3529;53.244;10.414;2023-07-13T03:11:29;1.58;;;1.48;;
6977;SDS011;3529;53.244;10.414;2023-07-13T03:13:56;1.45;;;1.45;;
6977;SDS011;3529;53.244;10.414;2023-07-13T03:16:22;1.20;;;1.20;;
6977;SDS011;3529;53.244;10.414;2023-07-13T03:18:48;1.52;;;1.42;;
6977;SDS011;3529;53.244;10.414;2023-07-13T03:21:14;1.08;;;1.08;;
6977;SDS011;3529;53.244;10.414;2023-07-13T03:23:40;1.42;;;1.33;;
6977;SDS011;3529;53.244;10.414;2023-07-13T03:26:11;1.55;;;1.52;;
6977;SDS011;3529;53.244;10.414;2023-07-13T03:28:38;1.30;;;1.25;;
6977;SDS011;3529;53.244;10.414;2023-07-13T03:31:11;1.33;;;1.33;;
6977;SDS011;3529;53.244;10.414;2023-07-13T03:33:37;1.60;;;1.50;;
6977;SDS011;3529;53.244;10.414;2023-07-13T03:36:04;1.27;;;1.27;;
6977;SDS011;3529;53.244;10.414;2023-07-13T03:38:30;1.42;;;1.42;;
6977;SDS011;3529;53.244;10.414;2023-07-13T03:40:57;1.33;;;1.33;;
6977;SDS011;3529;53.244;10.414;2023-07-13T03:43:22;1.40;;;1.40;;
6977;SDS011;3529;53.244;10.414;2023-07-13T03:45:48;1.55;;;1.55;;
6977;SDS011;3529;53.244;10.414;2023-07-13T03:48:15;1.45;;;1.45;;
6977;SDS011;3529;53.244;10.414;2023-07-13T03:50:41;2.20;;;2.10;;
6977;SDS011;3529;53.244;10.414;2023-07-13T03:53:07;1.52;;;1.48;;
6977;SDS011;3529;53.244;10.414;2023-07-13T03:55:33;1.33;;;1.33;;
6977;SDS011;3529;53.244;10.414;2023-07-13T03:58:00;1.10;;;1.10;;
6977;SDS011;3529;53.244;10.414;2023-07-13T04:00:26;1.33;;;1.33;;
6977;SDS011;3529;53.244;10.414;2023-07-13T04:02:52;1.35;;;1.35;;
6977;SDS011;3529;53.244;10.414;2023-07-13T04:05:18;1.30;;;1.30;;
6977;SDS011;3529;53.244;10.414;2023-07-13T04:07:44;1.60;;;1.50;;
6977;SDS011;3529;53.244;10.414;2023-07-13T04:10:10;1.20;;;1.20;;
6977;SDS011;3529;53.244;10.414;2023-07-13T04:12:36;1.50;;;1.50;;
6977;SDS011;3529;53.244;10.414;2023-07-13T04:15:02;1.30;;;1.30;;
6977;SDS011;3529;53.244;10.414;2023-07-13T04:17:29;1.73;;;1.63;;
6977;SDS011;3529;53.244;10.414;2023-07-13T04:19:54;1.20;;;1.20;;
6977;SDS011;3529;53.244;10.414;2023-07-13T04:22:20;1.40;;;1.40;;
6977;SDS011;3529;53.244;10.414;2023-07-13T04:24:46;1.42;;;1.42;;
6977;SDS011;3529;53.244;10.414;2023-07-13T04:27:12;1.42;;;1.42;;
6977;SDS011;3529;53.244;10.414;2023-07-13T04:29:38;1.33;;;1.33;;
6977;SDS011;3529;53.244;10.414;2023-07-13T04:32:05;1.60;;;1.50;;
6977;SDS011;3529;53.244;10.414;2023-07-13T04:34:31;2.35;;;2.25;;
6977;SDS011;3529;53.244;10.414;2023-07-13T04:36:57;1.40;;;1.30;;
6977;SDS011;3529;53.244;10.414;2023-07-13T04:39:23;1.65;;;1.55;;
6977;SDS011;3529;53.244;10.414;2023-07-13T04:41:49;0.90;;;0.90;;
6977;SDS011;3529;53.244;10.414;2023-07-13T04:44:14;1.75;;;1.65;;
6977;SDS011;3529;53.244;10.414;2023-07-13T04:46:41;1.40;;;1.40;;
6977;SDS011;3529;53.244;10.414;2023-07-13T04:49:07;1.40;;;1.40;;
6977;SDS011;3529;53.244;10.414;2023-07-13T04:51:33;1.38;;;1.27;;
6977;SDS011;3529;53.244;10.414;2023-07-13T04:53:59;1.30;;;1.30;;
6977;SDS011;3529;53.244;10.414;2023-07-13T04:56:25;1.92;;;1.83;;
6977;SDS011;3529;53.244;10.414;2023-07-13T04:58:51;4.75;;;4.35;;
6977;SDS011;3529;53.244;10.414;2023-07-13T05:01:17;8.63;;;6.63;;
6977;SDS011;3529;53.244;10.414;2023-07-13T05:03:43;3.17;;;2.88;;
6977;SDS011;3529;53.244;10.414;2023-07-13T05:06:09;3.38;;;2.35;;
6977;SDS011;3529;53.244;10.414;2023-07-13T05:08:35;4.68;;;4.03;;
6977;SDS011;3529;53.244;10.414;2023-07-13T05:11:02;2.72;;;2.45;;
6977;SDS011;3529;53.244;10.414;2023-07-13T05:13:28;5.35;;;2.85;;
6977;SDS011;3529;53.244;10.414;2023-07-13T05:15:55;5.03;;;2.35;;
6977;SDS011;3529;53.244;10.414;2023-07-13T05:18:21;3.28;;;2.67;;
6977;SDS011;3529;53.244;10.414;2023-07-13T05:20:54;7.55;;;3.60;;
6977;SDS011;3529;53.244;10.414;2023-07-13T05:23:20;6.13;;;4.40;;
6977;SDS011;3529;53.244;10.414;2023-07-13T05:25:46;2.28;;;2.08;;
6977;SDS011;3529;53.244;10.414;2023-07-13T05:28:12;1.30;;;1.20;;
6977;SDS011;3529;53.244;10.414;2023-07-13T05:30:38;1.23;;;1.20;;
6977;SDS011;3529;53.244;10.414;2023-07-13T05:33:04;1.10;;;1.10;;
6977;SDS011;3529;53.244;10.414;2023-07-13T05:35:30;1.40;;;1.30;;
6977;SDS011;3529;53.244;10.414;2023-07-13T05:37:56;1.00;;;1.00;;
6977;SDS011;3529;53.244;10.414;2023-07-13T05:40:22;2.45;;;2.25;;
6977;SDS011;3529;53.244;10.414;2023-07-13T05:42:47;3.60;;;3.30;;
6977;SDS011;3529;53.244;10.414;2023-07-13T05:45:14;1.35;;;1.25;;
6977;SDS011;3529;53.244;10.414;2023-07-13T05:47:40;1.48;;;1.45;;
6977;SDS011;3529;53.244;10.414;2023-07-13T05:50:06;1.30;;;1.30;;
6977;SDS011;3529;53.244;10.414;2023-07-13T05:52:32;3.88;;;2.17;;
6977;SDS011;3529;53.244;10.414;2023-07-13T05:54:58;2.45;;;1.40;;
6977;SDS011;3529;53.244;10.414;2023-07-13T05:57:24;2.10;;;1.48;;
6977;SDS011;3529;53.244;10.414;2023-07-13T05:59:50;1.33;;;1.33;;
6977;SDS011;3529;53.244;10.414;2023-07-13T06:02:16;1.48;;;1.45;;
6977;SDS011;3529;53.244;10.414;2023-07-13T06:04:42;1.15;;;1.15;;
6977;SDS011;3529;53.244;10.414;2023-07-13T06:07:08;1.25;;;1.25;;
6977;SDS011;3529;53.244;10.414;2023-07-13T06:09:34;1.20;;;1.20;;
6977;SDS011;3529;53.244;10.414;2023-07-13T06:12:00;1.67;;;1.58;;
6977;SDS011;3529;53.244;10.414;2023-07-13T06:14:26;1.20;;;1.20;;
6977;SDS011;3529;53.244;10.414;2023-07-13T06:16:52;1.42;;;1.40;;
6977;SDS011;3529;53.244;10.414;2023-07-13T06:19:18;1.17;;;1.17;;
6977;SDS011;3529;53.244;10.414;2023-07-13T06:21:44;1.10;;;1.10;;
6977;SDS011;3529;53.244;10.414;2023-07-13T06:24:10;1.30;;;1.30;;
6977;SDS011;3529;53.244;10.414;2023-07-13T06:26:36;1.10;;;1.10;;
6977;SDS011;3529;53.244;10.414;2023-07-13T06:29:02;1.23;;;1.23;;
6977;SDS011;3529;53.244;10.414;2023-07-13T06:31:28;1.80;;;1.70;;
6977;SDS011;3529;53.244;10.414;2023-07-13T06:33:54;1.92;;;1.83;;
6977;SDS011;3529;53.244;10.414;2023-07-13T06:36:20;2.03;;;1.50;;
6977;SDS011;3529;53.244;10.414;2023-07-13T06:38:46;1.63;;;1.52;;
6977;SDS011;3529;53.244;10.414;2023-07-13T06:41:12;1.50;;;1.40;;
6977;SDS011;3529;53.244;10.414;2023-07-13T06:43:38;1.58;;;1.48;;
6977;SDS011;3529;53.244;10.414;2023-07-13T06:46:04;1.77;;;1.67;;
6977;SDS011;3529;53.244;10.414;2023-07-13T06:48:33;1.45;;;1.42;;
6977;SDS011;3529;53.244;10.414;2023-07-13T06:50:59;1.23;;;1.23;;
6977;SDS011;3529;53.244;10.414;2023-07-13T06:53:25;1.00;;;1.00;;
6977;SDS011;3529;53.244;10.414;2023-07-13T06:55:51;1.10;;;1.10;;
6977;SDS011;3529;53.244;10.414;2023-07-13T06:58:17;1.50;;;1.40;;
6977;SDS011;3529;53.244;10.414;2023-07-13T07:00:43;4.18;;;1.83;;
6977;SDS011;3529;53.244;10.414;2023-07-13T07:03:09;1.20;;;1.20;;
6977;SDS011;3529;53.244;10.414;2023-07-13T07:05:35;1.95;;;1.85;;
6977;SDS011;3529;53.244;10.414;2023-07-13T07:08:01;1.10;;;1.10;;
6977;SDS011;3529;53.244;10.414;2023-07-13T07:10:28;1.20;;;1.20;;
6977;SDS011;3529;53.244;10.414;2023-07-13T07:12:55;1.48;;;1.38;;
6977;SDS011;3529;53.244;10.414;2023-07-13T07:15:21;0.93;;;0.93;;
6977;SDS011;3529;53.244;10.414;2023-07-13T07:17:47;1.05;;;1.05;;
6977;SDS011;3529;53.244;10.414;2023-07-13T07:20:13;2.72;;;1.30;;
6977;SDS011;3529;53.244;10.414;2023-07-13T07:22:39;0.90;;;0.90;;
6977;SDS011;3529;53.244;10.414;2023-07-13T07:25:05;1.33;;;1.30;;
6977;SDS011;3529;53.244;10.414;2023-07-13T07:27:31;1.30;;;1.25;;
6977;SDS011;3529;53.244;10.414;2023-07-13T07:29:57;0.90;;;0.90;;
6977;SDS011;3529;53.244;10.414;2023-07-13T07:32:23;1.15;;;1.13;;
6977;SDS011;3529;53.244;10.414;2023-07-13T07:34:49;1.20;;;1.10;;
6977;SDS011;3529;53.244;10.414;2023-07-13T07:37:16;0.88;;;0.88;;
6977;SDS011;3529;53.244;10.414;2023-07-13T07:39:45;1.10;;;1.02;;
6977;SDS011;3529;53.244;10.414;2023-07-13T07:42:11;1.02;;;1.02;;
6977;SDS011;3529;53.244;10.414;2023-07-13T07:44:38;1.40;;;1.40;;
6977;SDS011;3529;53.244;10.414;2023-07-13T07:47:04;1.00;;;1.00;;
6977;SDS011;3529;53.244;10.414;2023-07-13T07:49:30;1.05;;;1.05;;
6977;SDS011;3529;53.244;10.414;2023-07-13T07:51:56;2.88;;;1.23;;
6977;SDS011;3529;53.244;10.414;2023-07-13T07:54:22;8.55;;;1.33;;
6977;SDS011;3529;53.244;10.414;2023-07-13T07:56:48;0.80;;;0.80;;
6977;SDS011;3529;53.244;10.414;2023-07-13T07:59:14;1.02;;;0.93;;
6977;SDS011;3529;53.244;10.414;2023-07-13T08:01:40;1.38;;;1.27;;
6977;SDS011;3529;53.244;10.414;2023-07-13T08:04:06;1.02;;;1.02;;
6977;SDS011;3529;53.244;10.414;2023-07-13T08:06:32;2.22;;;1.38;;
6977;SDS011;3529;53.244;10.414;2023-07-13T08:08:59;1.08;;;1.05;;
6977;SDS011;3529;53.244;10.414;2023-07-13T08:11:26;1.02;;;1.02;;
6977;SDS011;3529;53.244;10.414;2023-07-13T08:13:52;0.80;;;0.80;;
6977;SDS011;3529;53.244;10.414;2023-07-13T08:16:18;2.60;;;1.25;;
6977;SDS011;3529;53.244;10.414;2023-07-13T08:18:44;0.98;;;0.98;;
6977;SDS011;3529;53.244;10.414;2023-07-13T08:21:10;0.80;;;0.80;;
6977;SDS011;3529;53.244;10.414;2023-07-13T08:23:36;2.47;;;1.45;;
6977;SDS011;3529;53.244;10.414;2023-07-13T08:26:02;8.40;;;1.23;;
6977;SDS011;3529;53.244;10.414;2023-07-13T08:28:29;0.80;;;0.80;;
6977;SDS011;3529;53.244;10.414;2023-07-13T08:31:00;1.02;;;1.02;;
6977;SDS011;3529;53.244;10.414;2023-07-13T08:33:26;1.05;;;1.00;;
6977;SDS011;3529;53.244;10.414;2023-07-13T08:35:52;0.95;;;0.95;;
6977;SDS011;3529;53.244;10.414;2023-07-13T08:38:18;0.90;;;0.90;;
6977;SDS011;3529;53.244;10.414;2023-07-13T08:40:45;1.20;;;1.10;;
6977;SDS011;3529;53.244;10.414;2023-07-13T08:43:18;3.15;;;1.40;;
6977;SDS011;3529;53.244;10.414;2023-07-13T08:49:03;0.90;;;0.90;;
6977;SDS011;3529;53.244;10.414;2023-07-13T08:51:43;1.10;;;1.10;;
6977;SDS011;3529;53.244;10.414;2023-07-13T08:54:02;3.15;;;1.27;;
6977;SDS011;3529;53.244;10.414;2023-07-13T08:56:30;0.90;;;0.90;;
6977;SDS011;3529;53.244;10.414;2023-07-13T08:59:30;1.00;;;1.00;;
6977;SDS011;3529;53.244;10.414;2023-07-13T09:02:05;1.75;;;1.20;;
6977;SDS011;3529;53.244;10.414;2023-07-13T09:04:37;0.75;;;0.75;;
6977;SDS011;3529;53.244;10.414;2023-07-13T09:09:46;1.95;;;1.17;;
6977;SDS011;3529;53.244;10.414;2023-07-13T09:14:48;1.02;;;0.93;;
6977;SDS011;3529;53.244;10.414;2023-07-13T09:19:46;1.00;;;0.80;;
6977;SDS011;3529;53.244;10.414;2023-07-13T09:22:14;0.70;;;0.70;;
6977;SDS011;3529;53.244;10.414;2023-07-13T09:27:46;0.70;;;0.70;;
6977;SDS011;3529;53.244;10.414;2023-07-13T09:32:39;0.50;;;0.50;;
6977;SDS011;3529;53.244;10.414;2023-07-13T09:35:11;0.63;;;0.63;;
6977;SDS011;3529;53.244;10.414;2023-07-13T09:37:38;0.60;;;0.60;;
6977;SDS011;3529;53.244;10.414;2023-07-13T09:40:08;0.82;;;0.82;;
6977;SDS011;3529;53.244;10.414;2023-07-13T09:42:37;0.80;;;0.80;;
6977;SDS011;3529;53.244;10.414;2023-07-13T09:45:03;0.60;;;0.60;;
6977;SDS011;3529;53.244;10.414;2023-07-13T09:47:32;0.73;;;0.73;;
6977;SDS011;3529;53.244;10.414;2023-07-13T09:50:00;7.03;;;0.77;;
6977;SDS011;3529;53.244;10.414;2023-07-13T09:52:26;0.90;;;0.90;;
6977;SDS011;3529;53.244;10.414;2023-07-13T09:54:53;0.82;;;0.82;;
6977;SDS011;3529;53.244;10.414;2023-07-13T09:57:24;0.75;;;0.75;;
6977;SDS011;3529;53.244;10.414;2023-07-13T09:59:51;0.73;;;0.73;;
6977;SDS011;3529;53.244;10.414;2023-07-13T10:02:35;0.90;;;0.90;;
6977;SDS011;3529;53.244;10.414;2023-07-13T10:05:06;2.28;;;0.98;;
6977;SDS011;3529;53.244;10.414;2023-07-13T10:07:35;0.93;;;0.93;;
6977;SDS011;3529;53.244;10.414;2023-07-13T10:10:12;3.00;;;1.20;;
6977;SDS011;3529;53.244;10.414;2023-07-13T10:12:38;0.85;;;0.85;;
6977;SDS011;3529;53.244;10.414;2023-07-13T10:15:07;4.07;;;1.20;;
6977;SDS011;3529;53.244;10.414;2023-07-13T10:17:34;0.93;;;0.93;;
6977;SDS011;3529;53.244;10.414;2023-07-13T10:20:02;3.58;;;1.08;;
6977;SDS011;3529;53.244;10.414;2023-07-13T10:22:35;1.10;;;1.00;;
6977;SDS011;3529;53.244;10.414;2023-07-13T10:25:03;0.60;;;0.60;;
6977;SDS011;3529;53.244;10.414;2023-07-13T10:27:35;0.70;;;0.70;;
6977;SDS011;3529;53.244;10.414;2023-07-13T10:30:09;0.70;;;0.70;;
6977;SDS011;3529;53.244;10.414;2023-07-13T10:32:37;5.90;;;0.55;;
6977;SDS011;3529;53.244;10.414;2023-07-13T10:35:03;0.90;;;0.70;;
6977;SDS011;3529;53.244;10.414;2023-07-13T10:37:34;0.60;;;0.60;;
6977;SDS011;3529;53.244;10.414;2023-07-13T10:40:02;0.70;;;0.70;;
6977;SDS011;3529;53.244;10.414;2023-07-13T10:42:30;0.75;;;0.75;;
6977;SDS011;3529;53.244;10.414;2023-07-13T10:44:58;1.30;;;1.00;;
6977;SDS011;3529;53.244;10.414;2023-07-13T10:47:24;0.77;;;0.75;;
6977;SDS011;3529;53.244;10.414;2023-07-13T10:49:51;0.70;;;0.70;;
6977;SDS011;3529;53.244;10.414;2023-07-13T10:55:03;2.22;;;1.02;;
6977;SDS011;3529;53.244;10.414;2023-07-13T10:57:29;0.90;;;0.90;;
6977;SDS011;3529;53.244;10.414;2023-07-13T11:02:28;1.92;;;0.85;;
6977;SDS011;3529;53.244;10.414;2023-07-13T11:04:55;0.68;;;0.68;;
6977;SDS011;3529;53.244;10.414;2023-07-13T11:07:24;0.90;;;0.90;;
6977;SDS011;3529;53.244;10.414;2023-07-13T11:10:03;0.80;;;0.80;;
6977;SDS011;3529;53.244;10.414;2023-07-13T11:18:24;0.90;;;0.80;;
6977;SDS011;3529;53.244;10.414;2023-07-13T11:20:50;1.13;;;1.13;;
6977;SDS011;3529;53.244;10.414;2023-07-13T11:23:17;0.70;;;0.70;;
6977;SDS011;3529;53.244;10.414;2023-07-13T11:25:44;0.90;;;0.90;;
6977;SDS011;3529;53.244;10.414;2023-07-13T11:30:59;0.77;;;0.77;;
6977;SDS011;3529;53.244;10.414;2023-07-13T11:36:17;0.98;;;0.98;;
6977;SDS011;3529;53.244;10.414;2023-07-13T11:38:59;0.95;;;0.95;;
6977;SDS011;3529;53.244;10.414;2023-07-13T11:41:27;6.72;;;1.35;;
6977;SDS011;3529;53.244;10.414;2023-07-13T11:43:55;0.98;;;0.98;;
6977;SDS011;3529;53.244;10.414;2023-07-13T11:46:22;1.00;;;1.00;;
6977;SDS011;3529;53.244;10.414;2023-07-13T11:48:49;1.27;;;1.17;;
6977;SDS011;3529;53.244;10.414;2023-07-13T11:53:45;0.80;;;0.80;;
6977;SDS011;3529;53.244;10.414;2023-07-13T11:56:12;1.48;;;1.30;;
6977;SDS011;3529;53.244;10.414;2023-07-13T11:58:38;0.80;;;0.80;;
6977;SDS011;3529;53.244;10.414;2023-07-13T12:01:04;1.45;;;0.98;;
6977;SDS011;3529;53.244;10.414;2023-07-13T12:03:31;0.82;;;0.82;;
6977;SDS011;3529;53.244;10.414;2023-07-13T12:06:00;0.80;;;0.80;;
6977;SDS011;3529;53.244;10.414;2023-07-13T12:08:27;0.90;;;0.90;;
6977;SDS011;3529;53.244;10.414;2023-07-13T12:11:00;0.85;;;0.85;;
6977;SDS011;3529;53.244;10.414;2023-07-13T12:13:34;0.95;;;0.95;;
6977;SDS011;3529;53.244;10.414;2023-07-13T12:16:00;0.90;;;0.90;;
6977;SDS011;3529;53.244;10.414;2023-07-13T12:18:30;1.10;;;1.10;;
6977;SDS011;3529;53.244;10.414;2023-07-13T12:20:59;1.10;;;1.05;;
6977;SDS011;3529;53.244;10.414;2023-07-13T12:23:29;1.00;;;1.00;;
6977;SDS011;3529;53.244;10.414;2023-07-13T12:25:55;0.82;;;0.82;;
6977;SDS011;3529;53.244;10.414;2023-07-13T12:28:23;2.90;;;1.20;;
6977;SDS011;3529;53.244;10.414;2023-07-13T12:30:59;0.93;;;0.93;;
6977;SDS011;3529;53.244;10.414;2023-07-13T12:33:27;0.90;;;0.90;;
6977;SDS011;3529;53.244;10.414;2023-07-13T12:35:53;1.48;;;1.08;;
6977;SDS011;3529;53.244;10.414;2023-07-13T12:38:20;2.35;;;0.98;;
6977;SDS011;3529;53.244;10.414;2023-07-13T12:40:48;1.95;;;1.05;;
6977;SDS011;3529;53.244;10.414;2023-07-13T12:43:15;0.95;;;0.95;;
6977;SDS011;3529;53.244;10.414;2023-07-13T12:45:58;0.90;;;0.90;;
6977;SDS011;3529;53.244;10.414;2023-07-13T12:48:25;0.77;;;0.77;;
6977;SDS011;3529;53.244;10.414;2023-07-13T12:50:51;0.82;;;0.82;;
6977;SDS011;3529;53.244;10.414;2023-07-13T12:53:20;0.90;;;0.90;;
6977;SDS011;3529;53.244;10.414;2023-07-13T12:55:48;1.20;;;1.20;;
6977;SDS011;3529;53.244;10.414;2023-07-13T12:58:24;1.10;;;1.10;;
6977;SDS011;3529;53.244;10.414;2023-07-13T13:00:51;0.82;;;0.82;;
6977;SDS011;3529;53.244;10.414;2023-07-13T13:03:24;1.05;;;1.05;;
6977;SDS011;3529;53.244;10.414;2023-07-13T13:06:00;1.35;;;1.35;;
6977;SDS011;3529;53.244;10.414;2023-07-13T13:08:28;1.08;;;1.08;;
6977;SDS011;3529;53.244;10.414;2023-07-13T13:10:54;1.60;;;1.50;;
6977;SDS011;3529;53.244;10.414;2023-07-13T13:13:20;1.40;;;1.30;;
6977;SDS011;3529;53.244;10.414;2023-07-13T13:15:46;1.13;;;1.13;;
6977;SDS011;3529;53.244;10.414;2023-07-13T13:18:19;1.10;;;1.10;;
6977;SDS011;3529;53.244;10.414;2023-07-13T13:20:46;1.17;;;1.17;;
6977;SDS011;3529;53.244;10.414;2023-07-13T13:23:13;1.33;;;1.33;;
6977;SDS011;3529;53.244;10.414;2023-07-13T13:25:42;1.65;;;1.55;;
6977;SDS011;3529;53.244;10.414;2023-07-13T13:28:15;1.58;;;1.52;;
6977;SDS011;3529;53.244;10.414;2023-07-13T13:30:42;1.17;;;1.15;;
6977;SDS011;3529;53.244;10.414;2023-07-13T13:33:11;1.52;;;1.42;;
6977;SDS011;3529;53.244;10.414;2023-07-13T13:35:38;1.30;;;1.30;;
6977;SDS011;3529;53.244;10.414;2023-07-13T13:38:09;1.45;;;1.38;;
6977;SDS011;3529;53.244;10.414;2023-07-13T13:40:36;1.27;;;1.27;;
6977;SDS011;3529;53.244;10.414;2023-07-13T13:43:04;1.20;;;1.20;;
6977;SDS011;3529;53.244;10.414;2023-07-13T13:45:30;1.30;;;1.30;;
6977;SDS011;3529;53.244;10.414;2023-07-13T13:47:57;1.40;;;1.40;;
6977;SDS011;3529;53.244;10.414;2023-07-13T13:50:23;1.83;;;1.73;;
6977;SDS011;3529;53.244;10.414;2023-07-13T13:52:49;1.30;;;1.30;;
6977;SDS011;3529;53.244;10.414;2023-07-13T13:55:20;1.45;;;1.45;;
6977;SDS011;3529;53.244;10.414;2023-07-13T13:57:46;1.30;;;1.27;;
6977;SDS011;3529;53.244;10.414;2023-07-13T14:00:13;1.30;;;1.30;;
6977;SDS011;3529;53.244;10.414;2023-07-13T14:02:40;1.50;;;1.40;;
6977;SDS011;3529;53.244;10.414;2023-07-13T14:05:09;1.70;;;1.60;;
6977;SDS011;3529;53.244;10.414;2023-07-13T14:07:37;1.23;;;1.23;;
6977;SDS011;3529;53.244;10.414;2023-07-13T14:10:11;1.90;;;1.80;;
6977;SDS011;3529;53.244;10.414;2023-07-13T14:12:37;1.30;;;1.30;;
6977;SDS011;3529;53.244;10.414;2023-07-13T14:15:04;1.20;;;1.17;;
6977;SDS011;3529;53.244;10.414;2023-07-13T14:17:30;1.20;;;1.20;;
6977;SDS011;3529;53.244;10.414;2023-07-13T14:19:58;1.95;;;1.60;;
6977;SDS011;3529;53.244;10.414;2023-07-13T14:22:25;1.65;;;1.23;;
6977;SDS011;3529;53.244;10.414;2023-07-13T14:24:52;1.30;;;1.30;;
6977;SDS011;3529;53.244;10.414;2023-07-13T14:27:18;1.20;;;1.20;;
6977;SDS011;3529;53.244;10.414;2023-07-13T14:29:44;1.80;;;1.73;;
6977;SDS011;3529;53.244;10.414;2023-07-13T14:32:11;1.05;;;1.05;;
6977;SDS011;3529;53.244;10.414;2023-07-13T14:34:37;1.55;;;1.55;;
6977;SDS011;3529;53.244;10.414;2023-07-13T14:37:03;1.65;;;1.55;;
6977;SDS011;3529;53.244;10.414;2023-07-13T14:39:30;1.77;;;1.30;;
6977;SDS011;3529;53.244;10.414;2023-07-13T14:41:57;1.20;;;1.20;;
6977;SDS011;3529;53.244;10.414;2023-07-13T14:44:25;1.83;;;1.73;;
6977;SDS011;3529;53.244;10.414;2023-07-13T14:46:51;1.30;;;1.20;;
6977;SDS011;3529;53.244;10.414;2023-07-13T14:49:25;1.15;;;1.15;;
6977;SDS011;3529;53.244;10.414;2023-07-13T14:51:51;1.38;;;1.30;;
6977;SDS011;3529;53.244;10.414;2023-07-13T14:54:18;2.33;;;2.13;;
6977;SDS011;3529;53.244;10.414;2023-07-13T14:56:44;3.40;;;1.50;;
6977;SDS011;3529;53.244;10.414;2023-07-13T14:59:10;1.35;;;1.25;;
6977;SDS011;3529;53.244;10.414;2023-07-13T15:01:37;1.30;;;1.30;;
6977;SDS011;3529;53.244;10.414;2023-07-13T15:04:05;1.20;;;1.20;;
6977;SDS011;3529;53.244;10.414;2023-07-13T15:06:34;1.20;;;1.20;;
6977;SDS011;3529;53.244;10.414;2023-07-13T15:09:01;1.40;;;1.40;;
6977;SDS011;3529;53.244;10.414;2023-07-13T15:11:27;2.42;;;2.33;;
6977;SDS011;3529;53.244;10.414;2023-07-13T15:13:53;2.50;;;2.00;;
6977;SDS011;3529;53.244;10.414;2023-07-13T15:16:23;1.13;;;1.13;;
6977;SDS011;3529;53.244;10.414;2023-07-13T15:18:49;1.58;;;1.48;;
6977;SDS011;3529;53.244;10.414;2023-07-13T15:21:20;2.20;;;2.05;;
6977;SDS011;3529;53.244;10.414;2023-07-13T15:23:47;2.30;;;2.05;;
6977;SDS011;3529;53.244;10.414;2023-07-13T15:26:16;2.88;;;2.58;;
6977;SDS011;3529;53.244;10.414;2023-07-13T15:28:42;1.23;;;1.23;;
6977;SDS011;3529;53.244;10.414;2023-07-13T15:31:27;1.23;;;1.23;;
6977;SDS011;3529;53.244;10.414;2023-07-13T15:33:54;1.10;;;1.10;;
6977;SDS011;3529;53.244;10.414;2023-07-13T15:36:20;1.10;;;1.10;;